Latest Weather Observations for Nullo Mountain

IDN60801

Issued at 6:32 pm EST Tuesday 7 April 2020 (issued every 10 minutes, with the page automatically refreshed every 10 minutes)

About weather observations | Map of weather stations | Latest weather observations for NSW | Other Formats
Station Details ID: 062100 Name: NULLO MOUNTAIN AWS Lat: -32.72 Lon: 150.23 Height: 1130.0 m
Data from the previous 72 hours. | See also: Recent months at Nullo Mountain
Date/Time
EST
Temp
°C
App
Temp
°C
Dew
Point
°C
Rel
Hum
%
Delta-T
°C
Wind Press
QNH
hPa
Press
MSL
hPa
Rain since
9am
mm
Dir  Spd
km/h
Gust
km/h
Spd
kts
Gust
kts
07/06:30pm 10.1 7.5 9.5 96 0.3 NE 13 17 7 9 - - 0.0
07/06:00pm 10.5 8.0 9.6 94 0.5 NE 13 17 7 9 - - 0.0
07/05:30pm 10.9 8.0 9.5 91 0.7 NE 15 19 8 10 - - 0.0
07/05:00pm 11.3 8.8 9.6 89 0.9 ENE 13 19 7 10 - - 0.0
07/04:30pm 11.7 9.2 9.8 88 1.0 ENE 13 17 7 9 - - 0.0
07/04:00pm 12.1 9.9 9.3 83 1.5 ENE 11 17 6 9 - - 0.0
07/03:30pm 12.3 10.1 9.3 82 1.6 ENE 11 19 6 10 - - 0.0
07/03:00pm 12.3 8.9 9.3 82 1.6 ENE 17 22 9 12 - - 0.0
07/02:30pm 12.3 10.8 9.1 81 1.7 ENE 7 19 4 10 - - 0.0
07/02:00pm 12.0 9.5 9.7 86 1.2 E 13 19 7 10 - - 0.0
07/01:30pm 10.5 7.9 9.4 93 0.6 SE 13 19 7 10 - - 0.0
07/01:00pm 11.2 9.4 9.6 90 0.9 E 9 13 5 7 - - 0.0
07/12:30pm 11.6 9.5 9.7 88 1.0 E 11 22 6 12 - - 0.0
07/12:00pm 11.3 9.3 10.2 93 0.6 E 11 19 6 10 - - 0.0
07/11:30am 10.6 8.3 10.4 99 0.1 ENE 13 22 7 12 - - 0.0
07/11:00am 10.0 8.3 10.0 100 0.0 E 9 17 5 9 - - 0.0
07/10:30am 9.5 6.6 9.5 100 0.0 E 15 20 8 11 - - 0.0
07/10:00am 9.3 6.3 9.3 100 0.0 E 15 22 8 12 - - 0.0
07/09:30am 9.1 5.1 9.1 100 0.0 E 20 30 11 16 - - 0.0
07/09:00am 8.9 4.8 8.8 99 0.1 ENE 20 32 11 17 - - 1.0
07/08:30am 8.8 4.9 8.7 99 0.1 ENE 19 26 10 14 - - 1.0
07/08:00am 8.5 4.4 8.5 100 0.0 ENE 20 28 11 15 - - 1.0
07/07:30am 8.5 4.6 8.5 100 0.0 E 19 30 10 16 - - 1.0
07/07:00am 8.6 5.1 8.6 100 0.0 E 17 22 9 12 - - 1.0
07/06:30am 8.6 4.7 8.6 100 0.0 E 19 28 10 15 - - 1.0
07/06:00am 8.8 6.1 8.8 100 0.0 ENE 13 20 7 11 - - 1.0
07/05:30am 8.8 5.7 8.8 100 0.0 E 15 22 8 12 - - 1.0
07/05:00am 8.9 6.2 8.9 100 0.0 E 13 20 7 11 - - 1.0
07/04:30am 9.0 5.9 9.0 100 0.0 ENE 15 22 8 12 - - 1.0
07/04:00am 9.1 6.4 9.1 100 0.0 NE 13 17 7 9 - - 1.0
07/03:30am 9.1 6.4 9.1 100 0.0 NE 13 20 7 11 - - 1.0
07/03:00am 9.3 7.1 9.3 100 0.0 E 11 17 6 9 - - 1.0
07/02:30am 9.4 7.2 9.4 100 0.0 ENE 11 24 6 13 - - 0.8
07/02:00am 9.4 7.6 9.4 100 0.0 NE 9 15 5 8 - - 0.6
07/01:30am 9.4 7.6 9.4 100 0.0 NE 9 13 5 7 - - 0.4
07/01:00am 9.4 7.2 9.3 99 0.1 NNE 11 17 6 9 - - 0.0
07/12:30am 9.8 7.2 9.5 98 0.2 E 13 22 7 12 - - 0.0
07/12:00am 9.9 7.8 9.6 98 0.2 NE 11 17 6 9 - - 0.0
 
Date/Time
EST
Temp
°C
App
Temp
°C
Dew
Point
°C
Rel
Hum
%
Delta-T
°C
Wind Press
QNH
hPa
Press
MSL
hPa
Rain since
9am
mm
Dir  Spd
km/h
Gust
km/h
Spd
kts
Gust
kts
06/11:30pm 9.8 7.6 9.2 96 0.3 NNE 11 13 6 7 - - 0.0
06/11:00pm 10.0 8.6 8.8 92 0.6 NNE 6 9 3 5 - - 0.0
06/10:30pm 9.5 6.3 6.9 84 1.3 NNE 13 15 7 8 - - 0.0
06/10:00pm 9.7 7.5 6.1 78 1.8 E 7 11 4 6 - - 0.0
06/09:30pm 10.2 8.3 6.7 79 1.8 S 6 9 3 5 - - 0.0
06/09:00pm 10.1 7.9 6.4 78 1.8 S 7 13 4 7 - - 0.0
06/08:30pm 9.9 7.7 6.4 79 1.7 S 7 15 4 8 - - 0.0
06/08:00pm 10.0 7.4 6.3 78 1.8 SSW 9 15 5 8 - - 0.0
06/07:30pm 10.2 7.6 6.2 76 2.0 SSW 9 13 5 7 - - 0.0
06/07:00pm 10.3 8.0 5.9 74 2.2 SSW 7 11 4 6 - - 0.0
06/06:30pm 10.4 7.8 6.2 75 2.1 SW 9 11 5 6 - - 0.0
06/06:00pm 10.7 8.7 6.1 73 2.3 SW 6 9 3 5 - - 0.0
06/05:30pm 12.0 9.4 6.3 68 2.9 WSW 9 15 5 8 - - 0.0
06/05:00pm 12.8 10.3 6.6 66 3.2 SW 9 19 5 10 - - 0.0
06/04:30pm 12.7 9.7 6.1 64 3.3 SW 11 22 6 12 - - 0.0
06/04:00pm 13.5 11.0 6.6 63 3.5 WSW 9 17 5 9 - - 0.0
06/03:30pm 13.8 10.7 7.3 65 3.4 SW 13 20 7 11 - - 0.0
06/03:00pm 14.3 12.1 7.8 65 3.4 SW 9 22 5 12 - - 0.0
06/02:30pm 12.9 10.0 6.7 66 3.2 SSW 11 17 6 9 - - 0.0
06/02:00pm 12.8 10.1 7.3 69 2.8 SW 11 17 6 9 - - 0.0
06/01:30pm 13.1 10.3 7.1 67 3.1 SW 11 19 6 10 - - 0.0
06/01:00pm 13.4 10.8 7.6 68 3.0 SSW 11 20 6 11 - - 0.0
06/12:30pm 13.2 10.5 7.2 67 3.1 WSW 11 19 6 10 - - 0.0
06/12:00pm 13.6 11.1 8.0 69 3.0 WSW 11 19 6 10 - - 0.0
06/11:30am 13.0 9.6 7.5 69 2.9 WSW 15 26 8 14 - - 0.0
06/11:00am 13.1 10.3 8.4 73 2.5 SW 13 26 7 14 - - 0.0
06/10:30am 12.3 9.0 8.0 75 2.2 SW 15 26 8 14 - - 0.0
06/10:00am 11.3 7.8 7.2 76 2.1 SW 15 24 8 13 - - 0.0
06/09:30am 10.8 7.8 7.5 80 1.7 WSW 13 24 7 13 - - 0.0
06/09:00am 10.2 6.7 7.4 83 1.4 WSW 15 24 8 13 - - 0.0
06/08:30am 9.4 6.2 7.0 85 1.2 WSW 13 22 7 12 - - 0.0
06/08:00am 8.6 5.7 6.4 86 1.1 WSW 11 20 6 11 - - 0.0
06/07:30am 8.0 4.6 6.0 87 1.0 WSW 13 22 7 12 - - 0.0
06/07:00am 7.2 4.5 5.8 91 0.7 W 9 17 5 9 - - 0.0
06/06:30am 7.0 3.9 5.6 91 0.7 W 11 20 6 11 - - 0.0
06/06:00am 6.7 3.5 5.3 91 0.7 W 11 19 6 10 - - 0.0
06/05:30am 6.8 4.0 5.3 90 0.7 W 9 19 5 10 - - 0.0
06/05:00am 7.0 3.8 5.3 89 0.8 W 11 22 6 12 - - 0.0
06/04:30am 7.0 3.9 5.5 90 0.7 W 11 22 6 12 - - 0.0
06/04:00am 6.9 3.8 5.4 90 0.7 W 11 22 6 12 - - 0.0
06/03:30am 7.0 4.2 5.3 89 0.8 WNW 9 17 5 9 - - 0.0
06/03:00am 7.1 3.9 5.3 88 0.9 W 11 20 6 11 - - 0.0
06/02:30am 7.4 3.8 5.2 86 1.0 W 13 28 7 15 - - 0.0
06/02:00am 7.3 3.7 5.1 86 1.0 WNW 13 24 7 13 - - 0.0
06/01:30am 7.4 4.2 5.0 85 1.1 W 11 20 6 11 - - 0.0
06/01:00am 7.3 3.7 5.1 86 1.0 W 13 26 7 14 - - 0.0
06/12:30am 7.0 4.2 5.2 88 0.9 WNW 9 19 5 10 - - 0.0
06/12:00am 7.3 4.5 5.3 87 1.0 WNW 9 17 5 9 - - 0.0
 
Date/Time
EST
Temp
°C
App
Temp
°C
Dew
Point
°C
Rel
Hum
%
Delta-T
°C
Wind Press
QNH
hPa
Press
MSL
hPa
Rain since
9am
mm
Dir  Spd
km/h
Gust
km/h
Spd
kts
Gust
kts
05/11:30pm 7.5 4.4 5.5 87 1.0 WNW 11 17 6 9 - - 0.0
05/11:00pm 7.7 5.0 5.5 86 1.1 WNW 9 22 5 12 - - 0.0
05/10:30pm 8.0 4.9 5.5 84 1.2 W 11 22 6 12 - - 0.0
05/10:00pm 8.1 5.0 5.6 84 1.2 WNW 11 24 6 13 - - 0.0
05/09:30pm 8.4 4.9 5.5 82 1.4 W 13 28 7 15 - - 0.0
05/09:00pm 8.6 5.1 5.5 81 1.5 W 13 30 7 16 - - 0.0
05/08:30pm 9.0 5.1 5.4 78 1.7 W 15 30 8 16 - - 0.0
05/08:00pm 9.2 5.7 5.4 77 1.8 WNW 13 26 7 14 - - 0.0
05/07:30pm 9.5 6.4 5.5 76 1.9 WNW 11 22 6 12 - - 0.0
05/07:00pm 9.8 6.3 5.4 74 2.1 WNW 13 28 7 15 - - 0.0
05/06:30pm 10.0 6.8 5.2 72 2.3 WNW 11 19 6 10 - - 0.0
05/06:00pm 10.4 7.6 5.2 70 2.5 WNW 9 19 5 10 - - 0.0
05/05:30pm 11.8 8.7 5.4 65 3.2 WNW 11 26 6 14 - - 0.0
05/05:00pm 12.1 8.6 5.5 64 3.3 WNW 13 26 7 14 - - 0.0
05/04:30pm 12.6 9.6 5.8 63 3.4 NW 11 24 6 13 - - 0.0
05/04:00pm 13.4 10.1 6.3 62 3.6 WNW 13 24 7 13 - - 0.0
05/03:30pm 13.5 10.2 6.4 62 3.6 W 13 28 7 15 - - 0.0
05/03:00pm 13.6 9.5 6.2 61 3.8 W 17 28 9 15 - - 0.0
05/02:30pm 13.5 9.3 5.9 60 3.8 W 17 28 9 15 - - 0.0
05/02:00pm 13.0 8.5 5.9 62 3.6 W 19 30 10 16 - - 0.0
05/01:30pm 12.8 8.1 5.9 63 3.5 W 20 33 11 18 - - 0.0
05/01:00pm 12.5 8.0 5.9 64 3.3 W 19 32 10 17 - - 0.0
05/12:30pm 12.7 8.2 6.3 65 3.2 W 19 32 10 17 - - 0.0
05/12:00pm 12.2 8.0 5.8 65 3.2 WNW 17 32 9 17 - - 0.0
05/11:30am 12.3 7.7 6.6 68 2.9 W 20 35 11 19 - - 0.0
05/11:00am 11.6 8.0 6.7 72 2.5 W 15 30 8 16 - - 0.0
05/10:30am 10.8 7.1 6.2 73 2.3 W 15 28 8 15 - - 0.0
05/10:00am 9.9 5.2 5.3 73 2.2 W 19 33 10 18 - - 0.0
05/09:30am 9.5 5.7 6.0 79 1.7 W 15 32 8 17 - - 0.0
05/09:00am 8.9 5.1 6.0 82 1.4 W 15 30 8 16 - - 0.0
05/08:30am 8.3 4.9 5.9 85 1.2 W 13 26 7 14 - - 0.0
05/08:00am 7.5 4.0 5.5 87 1.0 W 13 28 7 15 - - 0.0
05/07:30am 7.1 3.6 5.4 89 0.8 W 13 24 7 13 - - 0.0
05/07:00am 6.2 3.4 5.0 92 0.6 WNW 9 19 5 10 - - 0.0
05/06:30am 5.9 2.7 4.9 93 0.5 WNW 11 20 6 11 - - 0.0
05/06:00am 5.9 2.7 4.9 93 0.5 WNW 11 24 6 13 - - 0.0
05/05:30am 6.0 2.8 5.0 93 0.5 WNW 11 20 6 11 - - 0.0
05/05:00am 6.0 3.2 5.0 93 0.5 WNW 9 22 5 12 - - 0.0
05/04:30am 6.0 2.7 4.8 92 0.6 WNW 11 24 6 13 - - 0.0
05/04:00am 6.0 2.4 4.8 92 0.6 WNW 13 28 7 15 - - 0.0
05/03:30am 6.0 2.3 4.6 91 0.6 WNW 13 24 7 13 - - 0.0
05/03:00am 6.2 2.9 4.7 90 0.7 W 11 26 6 14 - - 0.0
05/03:30am 6.3 2.2 4.6 89 0.8 W 15 28 8 15 - - 0.0
05/03:00am 6.5 2.1 4.5 87 0.9 W 17 35 9 19 - - 0.0
05/02:30am 6.8 2.0 4.5 85 1.1 W 19 32 10 17 - - 0.0
05/02:00am 7.0 2.1 4.3 83 1.3 W 19 33 10 18 - - 0.0
05/01:30am 7.2 2.7 4.3 82 1.3 W 17 32 9 17 - - 0.0
05/01:00am 7.4 3.0 4.7 83 1.3 W 17 39 9 21 - - 0.0
05/12:30am 7.6 2.9 5.1 84 1.2 W 19 33 10 18 - - 0.0
05/12:00am 7.9 3.2 5.2 83 1.3 W 19 33 10 18 - - 0.0
 
Date/Time
EST
Temp
°C
App
Temp
°C
Dew
Point
°C
Rel
Hum
%
Delta-T
°C
Wind Press
QNH
hPa
Press
MSL
hPa
Rain since
9am
mm
Dir  Spd
km/h
Gust
km/h
Spd
kts
Gust
kts
04/11:30pm 8.0 4.2 6.0 87 1.0 WNW 15 30 8 16 - - 0.0
04/11:00pm 8.2 4.0 5.8 85 1.2 W 17 32 9 17 - - 0.0
04/10:30pm 8.4 4.2 5.5 82 1.4 W 17 37 9 20 - - 0.0
04/10:00pm 8.7 4.0 5.3 79 1.6 WNW 19 43 10 23 - - 0.0
04/09:30pm 8.9 4.3 5.5 79 1.6 WNW 19 35 10 19 - - 0.0
04/09:00pm 9.1 4.4 5.3 77 1.8 WNW 19 35 10 19 - - 0.0
04/08:30pm 9.2 5.3 5.4 77 1.8 WNW 15 26 8 14 - - 0.0
04/08:00pm 9.6 5.3 5.2 74 2.1 WNW 17 28 9 15 - - 0.0

Other formats

Comma delimited format used in spreadsheet applications
http://www.bom.gov.au/fwo/IDN60801/IDN60801.94754.axf

JavaScript Object Notation format (JSON) in row-major order
http://www.bom.gov.au/fwo/IDN60801/IDN60801.94754.json

Data quality

Most of these data are generated automatically and are frequently updated. Quality checks on data are not normally performed. It is possible for incorrect values to appear. Refer to information at About Latest Weather Observations and please check the disclaimer before using these data.